Time;durP1;ratioP1;P1;durP2;ratioP2;P2;SDS_P1;SDS_P2;PMS_P1;PMS_P2;Temp;Humidity;BMP_temperature;BMP_pressure;BME280_temperature;BME280_humidity;BME280_pressure;Samples;Min_cycle;Max_cycle;Signal;HPM_P1;HPM_P2
2022/12/27 00:00:49;;;;;;;0.90;0.90;;;3.70;99.90;;;;;;5055838;28;20294;-79
2022/12/27 00:03:17;;;;;;;1.17;0.85;;;3.70;99.90;;;;;;5054731;28;20197;-79
2022/12/27 00:05:46;;;;;;;0.60;0.60;;;3.70;99.90;;;;;;5052372;28;20205;-79
2022/12/27 00:08:14;;;;;;;0.80;0.73;;;3.70;99.90;;;;;;5055368;28;20194;-79
2022/12/27 00:10:41;;;;;;;4.28;2.28;;;3.70;99.90;;;;;;5054509;28;20276;-79
2022/12/27 00:13:08;;;;;;;2.38;1.98;;;3.80;99.90;;;;;;5055237;28;20226;-79
2022/12/27 00:15:35;;;;;;;1.52;1.00;;;3.80;99.90;;;;;;5054491;28;20229;-79
2022/12/27 00:18:02;;;;;;;1.77;1.33;;;3.80;99.90;;;;;;5055015;28;20656;-79
2022/12/27 00:20:29;;;;;;;1.52;1.40;;;3.80;99.90;;;;;;5052589;28;20230;-79
2022/12/27 00:23:00;;;;;;;2.95;0.77;;;3.80;99.90;;;;;;5047293;28;20708;-80
2022/12/27 00:25:26;;;;;;;0.50;0.50;;;3.80;99.90;;;;;;5053271;28;20245;-78
2022/12/27 00:27:53;;;;;;;1.05;0.95;;;3.80;99.90;;;;;;5055139;28;20194;-79
2022/12/27 00:30:20;;;;;;;4.65;1.80;;;3.80;99.90;;;;;;5054564;28;20197;-78
2022/12/27 00:32:47;;;;;;;1.35;0.98;;;3.80;99.90;;;;;;5055393;28;20305;-80
2022/12/27 00:35:14;;;;;;;2.30;1.15;;;3.80;99.90;;;;;;5054343;28;20205;-79
2022/12/27 00:37:40;;;;;;;1.55;1.45;;;3.80;99.90;;;;;;5055236;28;20222;-79
2022/12/27 00:40:10;;;;;;;0.82;0.82;;;3.80;99.90;;;;;;5055483;28;20289;-79
2022/12/27 00:42:37;;;;;;;3.80;1.08;;;3.80;99.90;;;;;;5055388;28;20321;-79
2022/12/27 00:45:05;;;;;;;1.58;1.45;;;3.70;99.90;;;;;;5054499;28;20197;-79
2022/12/27 00:47:32;;;;;;;3.95;1.35;;;3.80;99.90;;;;;;5055225;28;20622;-79
2022/12/27 00:49:58;;;;;;;0.85;0.70;;;3.80;99.90;;;;;;5055316;28;20198;-80
2022/12/27 00:52:25;;;;;;;0.50;0.50;;;3.80;99.90;;;;;;5063476;28;20245;-79
2022/12/27 00:54:52;;;;;;;1.25;1.15;;;3.80;99.90;;;;;;5053447;28;20664;-79
2022/12/27 00:57:20;;;;;;;1.98;1.10;;;3.80;99.90;;;;;;5054704;28;20194;-79
2022/12/27 00:59:48;;;;;;;1.35;1.25;;;3.80;99.90;;;;;;5056100;28;20222;-78
2022/12/27 01:02:15;;;;;;;0.77;0.65;;;3.80;99.90;;;;;;5055907;28;20293;-79
2022/12/27 01:04:41;;;;;;;1.35;1.25;;;3.70;99.90;;;;;;5054331;28;20195;-79
2022/12/27 01:07:08;;;;;;;0.70;0.50;;;3.70;99.90;;;;;;5055039;28;20285;-79
2022/12/27 01:09:35;;;;;;;3.00;1.38;;;3.70;99.90;;;;;;5055365;28;20218;-79
2022/12/27 01:12:02;;;;;;;1.75;1.65;;;3.70;99.90;;;;;;5054691;28;20225;-80
2022/12/27 01:14:30;;;;;;;0.95;0.95;;;3.70;99.90;;;;;;5054065;28;20285;-79
2022/12/27 01:16:57;;;;;;;0.98;0.50;;;3.70;99.90;;;;;;5056600;28;20194;-80
2022/12/27 01:19:24;;;;;;;0.75;0.75;;;3.70;99.90;;;;;;5058685;28;20286;-79
2022/12/27 01:21:51;;;;;;;1.02;0.85;;;3.80;99.90;;;;;;5066149;28;20301;-79
2022/12/27 01:24:17;;;;;;;0.50;0.40;;;3.80;99.90;;;;;;5055659;28;20269;-79
2022/12/27 01:26:44;;;;;;;0.65;0.65;;;3.80;99.90;;;;;;5057965;28;20202;-80
2022/12/27 01:29:12;;;;;;;0.50;0.40;;;3.90;99.90;;;;;;5058676;28;20237;-79
2022/12/27 01:31:40;;;;;;;4.50;1.00;;;3.90;99.90;;;;;;5057771;28;20221;-79
2022/12/27 01:34:08;;;;;;;3.45;1.15;;;3.80;99.90;;;;;;5058156;28;20218;-80
2022/12/27 01:36:34;;;;;;;0.60;0.60;;;3.80;99.90;;;;;;5058627;28;20624;-78
2022/12/27 01:39:02;;;;;;;0.70;0.70;;;3.80;99.90;;;;;;5058287;28;20249;-79
2022/12/27 01:44:52;;;;;;;4.75;0.93;;;3.70;99.90;;;;;;5057186;28;20259;-79
2022/12/27 01:47:29;;;;;;;0.68;0.68;;;3.80;99.90;;;;;;5057867;28;20286;-80
2022/12/27 01:50:11;;;;;;;1.70;1.60;;;3.80;99.90;;;;;;5058297;28;20265;-79
2022/12/27 01:52:42;;;;;;;1.70;1.60;;;3.80;99.90;;;;;;5065523;28;20569;-79
2022/12/27 01:55:17;;;;;;;1.88;0.98;;;3.80;99.90;;;;;;5056398;28;20612;-80
2022/12/27 01:57:45;;;;;;;4.95;2.67;;;3.80;99.90;;;;;;5058465;28;20217;-78
2022/12/27 02:00:13;;;;;;;1.80;1.30;;;3.70;99.90;;;;;;5058080;28;20277;-80
2022/12/27 02:02:41;;;;;;;0.77;0.70;;;3.80;99.90;;;;;;5057873;28;20301;-79
2022/12/27 02:05:11;;;;;;;0.63;0.63;;;3.80;99.90;;;;;;5056496;28;20199;-79
2022/12/27 02:07:45;;;;;;;0.70;0.60;;;3.80;99.90;;;;;;5057823;28;20294;-80
2022/12/27 02:10:12;;;;;;;1.50;0.63;;;3.70;99.90;;;;;;5057216;28;20274;-79
2022/12/27 02:12:39;;;;;;;4.38;1.90;;;3.70;99.90;;;;;;5057435;28;20746;-78
2022/12/27 02:15:06;;;;;;;0.80;0.70;;;3.80;99.90;;;;;;5057150;28;20220;-80
2022/12/27 02:17:34;;;;;;;5.18;1.20;;;3.80;99.90;;;;;;5058051;28;20194;-79
2022/12/27 02:20:09;;;;;;;1.17;0.82;;;3.80;99.90;;;;;;5057197;28;20199;-79
2022/12/27 02:26:23;;;;;;;1.63;1.25;;;3.70;99.90;;;;;;5034800;28;20312;-79
2022/12/27 02:29:17;;;;;;;1.42;1.05;;;3.70;99.90;;;;;;5037280;28;20184;-80
2022/12/27 02:31:51;;;;;;;3.05;2.38;;;3.70;99.90;;;;;;5037152;28;20314;-79
2022/12/27 02:34:23;;;;;;;3.00;2.22;;;3.70;99.90;;;;;;5036653;28;20247;-79
2022/12/27 02:36:54;;;;;;;0.80;0.80;;;3.70;99.90;;;;;;5037091;28;20179;-79
2022/12/27 02:39:24;;;;;;;0.68;0.68;;;3.70;99.90;;;;;;5037964;28;20199;-79
2022/12/27 02:53:06;;;;;;;2.67;1.45;;;3.70;99.90;;;;;;5048924;28;20198;-79
2022/12/27 02:58:50;;;;;;;1.05;0.73;;;3.70;99.90;;;;;;5056889;28;20174;-78
2022/12/27 03:04:32;;;;;;;5.28;1.50;;;3.70;99.90;;;;;;5053912;28;20185;-78
2022/12/27 03:07:13;;;;;;;0.65;0.65;;;3.70;99.90;;;;;;5054865;28;20189;-77
2022/12/27 03:15:55;;;;;;;0.93;0.93;;;3.70;99.90;;;;;;5053606;28;20236;-78
2022/12/27 03:18:33;;;;;;;2.22;1.92;;;3.70;99.90;;;;;;5055105;28;20194;-78
2022/12/27 03:26:37;;;;;;;2.97;2.78;;;3.80;99.90;;;;;;5054527;28;20187;-75
2022/12/27 03:34:47;;;;;;;2.50;1.02;;;3.80;99.90;;;;;;5053230;28;20194;-77
2022/12/27 03:40:09;;;;;;;9.93;1.55;;;3.90;99.90;;;;;;5053992;28;20659;-78
2022/12/27 03:46:32;;;;;;;0.77;0.77;;;3.90;99.90;;;;;;5053547;28;20202;-78
2022/12/27 03:48:15;;;;;;;4.43;1.73;;;3.90;99.90;;;;;;5054049;28;20191;-78
2022/12/27 03:50:48;;;;;;;8.98;2.63;;;3.90;99.90;;;;;;5055327;28;20190;-78
2022/12/27 03:53:21;;;;;;;3.90;1.60;;;3.90;99.90;;;;;;5058096;28;20264;-78
2022/12/27 03:55:48;;;;;;;1.00;1.00;;;3.90;99.90;;;;;;5052928;28;20265;-78
2022/12/27 03:58:15;;;;;;;0.85;0.85;;;3.90;99.90;;;;;;5053903;28;20633;-77
2022/12/27 04:00:42;;;;;;;1.30;0.52;;;3.90;99.90;;;;;;5053672;28;20279;-78
2022/12/27 04:03:09;;;;;;;8.10;1.90;;;3.90;99.90;;;;;;5053884;28;20201;-78
2022/12/27 04:05:36;;;;;;;5.78;3.20;;;4.00;99.90;;;;;;5052573;28;20205;-78
2022/12/27 04:35:28;;;;;;;2.83;2.72;;;4.00;99.90;;;;;;5051798;28;20178;-78
2022/12/27 04:37:55;;;;;;;3.17;2.72;;;4.00;99.90;;;;;;5053055;28;20639;-78
2022/12/27 04:57:00;;;;;;;1.90;1.80;;;4.10;99.90;;;;;;5058804;28;20229;-79
2022/12/27 05:02:11;;;;;;;1.75;1.42;;;4.20;99.90;;;;;;5060394;28;20583;-78
2022/12/27 05:04:39;;;;;;;0.60;0.60;;;4.20;99.90;;;;;;5059306;28;20204;-79
2022/12/27 05:15:28;;;;;;;1.83;1.73;;;4.30;99.90;;;;;;5034126;28;20669;-79
2022/12/27 05:17:56;;;;;;;1.67;1.08;;;4.40;99.90;;;;;;5059132;28;20202;-79
2022/12/27 05:20:23;;;;;;;3.55;1.23;;;4.40;99.90;;;;;;5018394;28;1140733;-79
2022/12/27 05:25:34;;;;;;;3.50;1.33;;;4.50;99.90;;;;;;5058508;28;20209;-77
2022/12/27 05:28:03;;;;;;;1.70;1.60;;;4.50;99.90;;;;;;5058873;28;20262;-78
2022/12/27 05:30:32;;;;;;;1.40;1.30;;;4.40;99.90;;;;;;5059852;28;20198;-78
2022/12/27 05:32:58;;;;;;;1.58;1.38;;;4.40;99.90;;;;;;5059865;28;20302;-79
2022/12/27 05:35:25;;;;;;;1.63;0.88;;;4.50;99.90;;;;;;5060062;28;20191;-78
2022/12/27 05:37:54;;;;;;;0.57;0.57;;;4.50;99.90;;;;;;5059998;28;20663;-79
2022/12/27 05:40:20;;;;;;;0.50;0.50;;;4.50;99.90;;;;;;5059105;28;20202;-79
2022/12/27 05:42:47;;;;;;;0.50;0.50;;;4.50;99.90;;;;;;5059400;28;20700;-78
2022/12/27 05:45:16;;;;;;;1.23;1.13;;;4.50;99.90;;;;;;5055978;28;20306;-78
2022/12/27 05:47:43;;;;;;;2.90;2.55;;;4.50;99.90;;;;;;5056469;28;20209;-79
2022/12/27 05:50:10;;;;;;;1.10;0.95;;;4.50;99.90;;;;;;5056698;28;20669;-79
2022/12/27 05:52:37;;;;;;;4.28;1.42;;;4.50;99.90;;;;;;5064282;28;20583;-78
2022/12/27 05:55:06;;;;;;;5.80;2.55;;;4.40;99.90;;;;;;5055168;28;20630;-76
2022/12/27 05:57:33;;;;;;;5.18;1.10;;;4.50;99.90;;;;;;5055423;28;20183;-77
2022/12/27 06:00:00;;;;;;;0.90;0.90;;;4.40;99.90;;;;;;5056489;28;20209;-78
2022/12/27 06:02:28;;;;;;;5.28;2.28;;;4.40;99.90;;;;;;5054409;28;20246;-78
2022/12/27 06:04:55;;;;;;;5.50;1.83;;;4.40;99.90;;;;;;5054028;28;20198;-78
2022/12/27 06:07:22;;;;;;;0.90;0.90;;;4.40;99.90;;;;;;5055348;28;20286;-79
2022/12/27 06:09:49;;;;;;;0.65;0.65;;;4.40;99.90;;;;;;5055080;28;20660;-79
2022/12/27 06:12:16;;;;;;;4.00;1.30;;;4.40;99.90;;;;;;5054942;28;20293;-79
2022/12/27 06:14:43;;;;;;;2.00;1.90;;;4.40;99.90;;;;;;5054659;28;20195;-78
2022/12/27 06:17:10;;;;;;;4.00;0.70;;;4.40;99.90;;;;;;5056073;28;20214;-79
2022/12/27 06:19:38;;;;;;;1.88;1.77;;;4.40;99.90;;;;;;5055926;28;20290;-78
2022/12/27 06:22:05;;;;;;;5.90;0.95;;;4.40;99.90;;;;;;5064019;28;20246;-78
2022/12/27 06:24:31;;;;;;;7.28;1.67;;;4.30;99.90;;;;;;5054010;28;20213;-79
2022/12/27 06:26:58;;;;;;;1.85;1.75;;;4.30;99.90;;;;;;5055277;28;20197;-78
2022/12/27 06:29:26;;;;;;;2.38;0.65;;;4.40;99.90;;;;;;5055539;28;20289;-78
2022/12/27 06:31:52;;;;;;;3.08;1.85;;;4.30;99.90;;;;;;5053927;28;20302;-78
2022/12/27 06:34:19;;;;;;;3.25;0.60;;;4.40;99.90;;;;;;5054637;28;20195;-78
2022/12/27 06:36:50;;;;;;;0.70;0.70;;;4.40;99.90;;;;;;5057237;28;20201;-78
2022/12/27 06:39:17;;;;;;;1.60;1.50;;;4.30;99.90;;;;;;5056969;28;20199;-78
2022/12/27 06:41:44;;;;;;;3.95;2.05;;;4.30;99.90;;;;;;5057293;28;20745;-78
2022/12/27 06:44:11;;;;;;;0.73;0.73;;;4.30;99.90;;;;;;5054453;28;20198;-78
2022/12/27 06:46:38;;;;;;;2.75;1.77;;;4.30;99.90;;;;;;5055972;28;20580;-77
2022/12/27 06:49:05;;;;;;;0.82;0.82;;;4.30;99.90;;;;;;5055217;28;20225;-78
2022/12/27 06:51:33;;;;;;;0.50;0.40;;;4.30;99.90;;;;;;5063714;28;20655;-77
2022/12/27 06:54:02;;;;;;;2.80;1.00;;;4.20;99.90;;;;;;5054349;28;20221;-78
2022/12/27 06:56:29;;;;;;;3.13;1.63;;;4.20;99.90;;;;;;5055202;28;20285;-77
2022/12/27 06:58:55;;;;;;;5.32;4.88;;;4.20;99.90;;;;;;5055074;28;20198;-78
2022/12/27 07:01:24;;;;;;;3.10;2.55;;;4.20;99.90;;;;;;5055936;28;20246;-80
2022/12/27 07:03:52;;;;;;;3.75;2.53;;;4.20;99.90;;;;;;5056695;28;20218;-78
2022/12/27 07:06:20;;;;;;;2.17;1.58;;;4.10;99.90;;;;;;5056343;28;20190;-78
2022/12/27 07:08:47;;;;;;;3.17;2.03;;;4.10;99.90;;;;;;5053832;28;20652;-77
2022/12/27 07:11:17;;;;;;;3.80;1.50;;;4.10;99.90;;;;;;5053926;28;20623;-77
2022/12/27 07:13:46;;;;;;;2.65;2.55;;;4.00;99.90;;;;;;5053642;28;20214;-77
2022/12/27 07:16:15;;;;;;;1.35;1.25;;;4.00;99.90;;;;;;5052720;28;20191;-77
2022/12/27 07:18:42;;;;;;;0.50;0.40;;;4.00;99.90;;;;;;5053307;28;20205;-77
2022/12/27 07:21:10;;;;;;;3.10;1.58;;;4.00;99.90;;;;;;5058176;28;20260;-78
2022/12/27 07:23:38;;;;;;;1.05;0.80;;;4.00;99.90;;;;;;5055019;28;20186;-77
2022/12/27 07:26:07;;;;;;;0.85;0.80;;;3.90;99.90;;;;;;5050859;28;20771;-77
2022/12/27 07:28:35;;;;;;;1.35;0.68;;;3.90;99.90;;;;;;5052975;28;20688;-78
2022/12/27 07:31:06;;;;;;;9.90;1.50;;;3.90;99.90;;;;;;5053490;28;20580;-77
2022/12/27 07:33:33;;;;;;;2.47;1.65;;;3.90;99.90;;;;;;5053757;28;20646;-77
2022/12/27 07:36:01;;;;;;;1.55;1.23;;;3.90;99.90;;;;;;5051594;28;20198;-77
2022/12/27 07:38:28;;;;;;;4.03;2.03;;;3.90;99.90;;;;;;5053354;28;20198;-77
2022/12/27 07:40:58;;;;;;;2.75;2.15;;;3.90;99.90;;;;;;5052668;28;20249;-77
2022/12/27 07:43:24;;;;;;;0.70;0.68;;;3.90;99.90;;;;;;5052956;28;20266;-77
2022/12/27 07:45:53;;;;;;;2.05;1.10;;;3.90;99.90;;;;;;5051928;28;20194;-77
2022/12/27 07:48:19;;;;;;;0.50;0.50;;;3.90;99.90;;;;;;5052974;28;20199;-77
2022/12/27 07:50:54;;;;;;;1.85;1.40;;;4.00;99.90;;;;;;5054305;28;20258;-77
2022/12/27 07:53:21;;;;;;;5.20;1.42;;;4.00;99.90;;;;;;5057169;28;20202;-77
2022/12/27 07:55:49;;;;;;;0.50;0.40;;;4.00;99.90;;;;;;5051552;28;20213;-77
2022/12/27 07:58:16;;;;;;;10.60;3.53;;;4.00;99.90;;;;;;5052806;28;20241;-77
2022/12/27 08:00:44;;;;;;;0.75;0.75;;;4.00;99.90;;;;;;5052476;28;20349;-76
2022/12/27 08:03:12;;;;;;;2.13;1.95;;;4.10;99.90;;;;;;5052877;28;20281;-77
2022/12/27 08:05:45;;;;;;;1.45;0.93;;;4.10;99.90;;;;;;5051624;28;20401;-77
2022/12/27 08:08:14;;;;;;;0.55;0.55;;;4.10;99.90;;;;;;5052837;28;20178;-77
2022/12/27 08:10:41;;;;;;;7.75;1.92;;;4.10;99.90;;;;;;5052340;28;20667;-76
2022/12/27 08:13:08;;;;;;;2.60;1.35;;;4.10;99.90;;;;;;5052257;28;20221;-77
2022/12/27 08:15:36;;;;;;;2.40;1.92;;;4.10;99.90;;;;;;5051061;28;20290;-77
2022/12/27 08:18:03;;;;;;;1.50;1.05;;;4.10;99.90;;;;;;5052472;28;20675;-75
2022/12/27 08:20:31;;;;;;;1.60;1.50;;;4.20;99.90;;;;;;5051201;28;20689;-77
2022/12/27 08:22:58;;;;;;;23.05;2.47;;;4.30;99.90;;;;;;5060572;28;20175;-78
2022/12/27 08:25:25;;;;;;;0.88;0.68;;;4.40;99.90;;;;;;5054024;28;20193;-77
2022/12/27 08:27:52;;;;;;;2.60;1.10;;;4.50;99.90;;;;;;5056675;28;20233;-77
2022/12/27 08:30:19;;;;;;;3.00;1.38;;;4.60;99.90;;;;;;5062902;28;20265;-79
2022/12/27 08:32:46;;;;;;;3.88;2.15;;;4.70;99.90;;;;;;5064069;28;20599;-78
2022/12/27 08:35:13;;;;;;;0.82;0.70;;;4.70;99.90;;;;;;5063880;28;20229;-78
2022/12/27 08:37:41;;;;;;;1.90;0.80;;;4.80;99.90;;;;;;5065558;28;20195;-78
2022/12/27 08:40:09;;;;;;;3.22;1.23;;;4.80;99.90;;;;;;5061917;28;20194;-78
2022/12/27 08:42:36;;;;;;;2.78;2.05;;;4.90;99.90;;;;;;5063269;28;20277;-78
2022/12/27 08:45:03;;;;;;;1.02;0.93;;;4.80;99.90;;;;;;5060139;28;20204;-77
2022/12/27 08:47:30;;;;;;;1.63;1.52;;;4.80;99.90;;;;;;5061896;28;20622;-78
2022/12/27 08:49:56;;;;;;;0.80;0.80;;;4.80;99.90;;;;;;5062239;28;20238;-77
2022/12/27 08:52:24;;;;;;;5.65;1.00;;;4.90;99.90;;;;;;5068297;28;20321;-78
2022/12/27 08:54:53;;;;;;;0.68;0.68;;;5.10;99.90;;;;;;5061591;28;20191;-78
2022/12/27 08:57:19;;;;;;;2.03;1.40;;;5.30;99.90;;;;;;5081280;22;20210;-81
2022/12/27 08:59:46;;;;;;;3.90;0.95;;;5.40;99.90;;;;;;5076489;28;20248;-80
2022/12/27 09:02:14;;;;;;;1.40;1.30;;;5.60;99.90;;;;;;5070904;28;20194;-81
2022/12/27 09:04:40;;;;;;;0.50;0.45;;;5.80;99.90;;;;;;5078184;28;20197;-80
2022/12/27 09:07:07;;;;;;;1.30;1.20;;;6.00;99.90;;;;;;5078617;28;20261;-81
2022/12/27 09:09:34;;;;;;;0.50;0.45;;;6.00;99.90;;;;;;5079726;28;20237;-82
2022/12/27 09:12:03;;;;;;;1.33;1.05;;;6.10;99.90;;;;;;5078882;28;20198;-82
2022/12/27 09:14:29;;;;;;;0.50;0.40;;;6.10;99.90;;;;;;5078313;28;20214;-81
2022/12/27 09:16:56;;;;;;;0.60;0.60;;;6.20;99.90;;;;;;5078445;28;20285;-81
2022/12/27 09:19:23;;;;;;;1.60;1.50;;;6.40;99.90;;;;;;5078118;28;20217;-82
2022/12/27 09:21:50;;;;;;;0.50;0.45;;;6.40;99.90;;;;;;5078876;28;20285;-81
2022/12/27 09:24:17;;;;;;;0.80;0.60;;;6.40;99.90;;;;;;5078313;28;20196;-82
2022/12/27 09:26:44;;;;;;;0.70;0.55;;;6.50;99.90;;;;;;5078597;28;20229;-81
2022/12/27 09:29:12;;;;;;;0.95;0.88;;;6.50;99.90;;;;;;5078383;28;20270;-81
2022/12/27 09:31:39;;;;;;;1.30;1.20;;;6.70;99.90;;;;;;5077893;28;20282;-82
2022/12/27 09:34:06;;;;;;;2.15;1.05;;;6.90;99.90;;;;;;5077834;28;20314;-82
2022/12/27 09:36:32;;;;;;;0.70;0.70;;;7.10;99.90;;;;;;5078916;28;20194;-82
2022/12/27 09:39:00;;;;;;;1.33;0.85;;;7.20;99.90;;;;;;5077947;28;20241;-81
2022/12/27 09:41:40;;;;;;;0.50;0.50;;;7.30;99.90;;;;;;5076361;28;20194;-81
2022/12/27 09:44:15;;;;;;;0.50;0.50;;;7.50;99.90;;;;;;5077712;28;20193;-81
2022/12/27 09:46:47;;;;;;;2.72;2.15;;;7.30;99.90;;;;;;5078486;28;20277;-81
2022/12/27 09:49:19;;;;;;;0.80;0.80;;;7.10;99.90;;;;;;5079147;28;20278;-84
2022/12/27 09:51:51;;;;;;;1.10;0.95;;;7.10;99.90;;;;;;5079376;28;20179;-82
2022/12/27 09:54:22;;;;;;;2.25;1.02;;;6.80;99.90;;;;;;5076575;28;20212;-82
2022/12/27 09:56:51;;;;;;;0.75;0.75;;;6.50;99.90;;;;;;5079083;28;20203;-81
2022/12/27 09:59:26;;;;;;;1.85;1.27;;;6.40;99.90;;;;;;5078874;28;20221;-82
2022/12/27 10:01:53;;;;;;;2.50;1.75;;;6.40;99.90;;;;;;5058779;28;20667;-84
2022/12/27 10:04:20;;;;;;;1.42;1.30;;;6.40;99.90;;;;;;5063701;28;20194;-82
2022/12/27 10:07:05;;;;;;;2.25;2.05;;;6.30;99.90;;;;;;5077449;28;20194;-85
2022/12/27 10:09:46;;;;;;;6.28;0.93;;;6.30;99.90;;;;;;5078717;28;20189;-84
2022/12/27 10:12:36;;;;;;;2.40;1.70;;;6.20;99.90;;;;;;5079012;28;20175;-81
2022/12/27 10:15:23;;;;;;;1.63;0.85;;;6.30;99.90;;;;;;5078610;28;20293;-83
2022/12/27 10:17:58;;;;;;;0.90;0.50;;;6.50;99.90;;;;;;5079200;28;20285;-80
2022/12/27 10:20:48;;;;;;;0.82;0.82;;;6.80;99.90;;;;;;5080079;28;20241;-83
2022/12/27 10:23:19;;;;;;;12.52;1.15;;;7.10;99.90;;;;;;5085599;28;20206;-85
2022/12/27 10:25:47;;;;;;;2.65;1.73;;;7.20;99.90;;;;;;5091617;28;20245;-85
2022/12/27 10:28:17;;;;;;;1.45;1.35;;;7.30;99.90;;;;;;5080283;28;20210;-82
2022/12/27 10:30:46;;;;;;;2.85;0.98;;;7.00;99.90;;;;;;5077446;28;20194;-81
2022/12/27 10:33:20;;;;;;;10.95;1.90;;;7.10;99.90;;;;;;5080608;28;20220;-81
2022/12/27 10:35:47;;;;;;;0.50;0.50;;;7.30;99.90;;;;;;5077054;28;20192;-83
2022/12/27 10:38:14;;;;;;;1.30;1.00;;;7.50;99.90;;;;;;5077499;28;20218;-82
2022/12/27 10:40:53;;;;;;;1.08;1.08;;;7.60;99.90;;;;;;5078639;28;20221;-83
2022/12/27 10:43:24;;;;;;;1.98;0.80;;;7.60;99.90;;;;;;5079539;28;20242;-81
2022/12/27 10:45:53;;;;;;;1.08;0.98;;;7.90;99.90;;;;;;5079284;28;20182;-82
2022/12/27 10:48:22;;;;;;;2.88;1.10;;;8.00;99.90;;;;;;5076648;28;20228;-85
2022/12/27 10:50:54;;;;;;;4.63;0.85;;;8.00;99.90;;;;;;5075583;28;20277;-81
2022/12/27 10:53:32;;;;;;;1.90;1.20;;;8.10;99.90;;;;;;5077073;28;20304;-83
2022/12/27 10:56:14;;;;;;;1.95;1.15;;;8.20;99.90;;;;;;5076118;28;20186;-83
2022/12/27 10:58:44;;;;;;;0.52;0.40;;;8.40;99.90;;;;;;5075564;28;20232;-81
2022/12/27 11:01:23;;;;;;;0.70;0.50;;;8.50;99.90;;;;;;5076780;28;20707;-80
2022/12/27 11:03:50;;;;;;;3.92;1.98;;;8.40;99.90;;;;;;5076336;28;20266;-83
2022/12/27 11:06:25;;;;;;;2.25;1.60;;;8.30;99.90;;;;;;5075537;28;20261;-82
2022/12/27 11:08:53;;;;;;;0.75;0.70;;;8.10;99.90;;;;;;5076558;28;20213;-85
2022/12/27 11:11:22;;;;;;;1.80;0.95;;;8.10;99.90;;;;;;5076824;28;20700;-82
2022/12/27 11:13:49;;;;;;;0.50;0.40;;;8.30;99.90;;;;;;5076650;28;20293;-81
2022/12/27 11:16:29;;;;;;;1.67;1.58;;;8.50;99.90;;;;;;5077069;28;20190;-81
2022/12/27 11:19:00;;;;;;;0.50;0.45;;;8.50;99.90;;;;;;5078794;28;20253;-84
2022/12/27 11:21:28;;;;;;;0.77;0.77;;;8.60;99.90;;;;;;5077925;28;20182;-85
2022/12/27 11:23:58;;;;;;;1.55;1.42;;;8.60;99.90;;;;;;5077364;28;20640;-84
2022/12/27 11:26:29;;;;;;;3.40;3.15;;;8.60;99.90;;;;;;5078715;28;20233;-84
2022/12/27 11:28:59;;;;;;;3.17;0.70;;;8.30;99.90;;;;;;5082736;28;20217;-83
2022/12/27 11:31:38;;;;;;;1.05;0.85;;;8.30;99.90;;;;;;5086530;28;20213;-81
2022/12/27 11:34:27;;;;;;;;;;;;;;;;;;;;;
2022/12/27 11:37:02;;;;;;;2.65;2.00;;;8.20;99.90;;;;;;5056198;28;20273;-82
2022/12/27 11:39:39;;;;;;;1.13;0.70;;;8.20;99.90;;;;;;5058135;28;20252;-85
2022/12/27 11:42:11;;;;;;;0.75;0.75;;;8.00;99.90;;;;;;5076953;28;20208;-81
2022/12/27 11:44:42;;;;;;;0.90;0.80;;;8.10;99.90;;;;;;5075137;28;20180;-82
2022/12/27 11:47:12;;;;;;;2.55;1.50;;;8.00;99.90;;;;;;5076910;28;20265;-84
2022/12/27 11:49:46;;;;;;;1.45;1.35;;;8.00;99.90;;;;;;5076386;28;20269;-82
2022/12/27 11:52:34;;;;;;;5.03;1.63;;;8.00;99.90;;;;;;5076066;28;20189;-81
2022/12/27 11:55:39;;;;;;;1.85;1.75;;;8.10;99.90;;;;;;5075496;28;20190;-87
2022/12/27 11:58:34;;;;;;;1.15;0.90;;;8.20;99.90;;;;;;5075629;28;20226;-82
2022/12/27 12:01:21;;;;;;;4.82;1.88;;;8.40;99.90;;;;;;5025827;28;20713;-82
2022/12/27 12:04:06;;;;;;;4.53;2.10;;;8.50;99.90;;;;;;5076030;28;20205;-81
2022/12/27 12:06:46;;;;;;;0.95;0.95;;;8.70;99.90;;;;;;5075947;28;20201;-86
2022/12/27 12:09:23;;;;;;;1.35;1.25;;;8.60;99.90;;;;;;5074987;28;20214;-83
2022/12/27 12:12:37;;;;;;;8.20;1.48;;;8.80;99.90;;;;;;5075864;28;20555;-85
2022/12/27 12:15:35;;;;;;;7.80;2.17;;;8.60;99.90;;;;;;5074312;28;20296;-85
2022/12/27 12:18:13;;;;;;;2.42;1.35;;;8.50;99.90;;;;;;5075821;28;20221;-81
2022/12/27 12:20:57;;;;;;;0.93;0.93;;;8.10;99.90;;;;;;5076116;28;20178;-82
2022/12/27 12:23:38;;;;;;;1.90;0.98;;;8.00;99.90;;;;;;5075309;28;20642;-83
2022/12/27 12:26:13;;;;;;;2.78;1.25;;;7.90;99.90;;;;;;5075547;28;20201;-79
2022/12/27 12:29:20;;;;;;;0.60;0.60;;;7.70;99.90;;;;;;5075193;28;20571;-82
2022/12/27 12:32:26;;;;;;;0.77;0.75;;;7.60;99.90;;;;;;5075671;28;20186;-80
2022/12/27 12:35:26;;;;;;;3.53;0.70;;;7.50;99.90;;;;;;5074199;28;20245;-80
2022/12/27 12:38:08;;;;;;;0.70;0.70;;;7.30;99.90;;;;;;5050248;28;20214;-80
2022/12/27 12:41:02;;;;;;;0.60;0.50;;;7.30;99.90;;;;;;5073343;28;20213;-80
2022/12/27 12:43:48;;;;;;;0.60;0.50;;;7.30;99.90;;;;;;5073831;28;20182;-82
2022/12/27 12:46:24;;;;;;;0.70;0.70;;;7.30;99.90;;;;;;5073879;28;20186;-79
2022/12/27 12:49:15;;;;;;;0.50;0.50;;;7.30;99.90;;;;;;5074717;28;20303;-80
2022/12/27 12:52:08;;;;;;;5.38;0.90;;;7.30;99.90;;;;;;5074877;28;20548;-79
2022/12/27 12:54:54;;;;;;;1.15;0.80;;;7.30;99.90;;;;;;5073709;28;20422;-81
2022/12/27 12:57:36;;;;;;;0.57;0.57;;;7.20;99.90;;;;;;5074566;28;20285;-80
2022/12/27 13:00:16;;;;;;;1.75;1.65;;;7.20;99.90;;;;;;5067410;28;20186;-80
2022/12/27 13:03:17;;;;;;;7.03;0.70;;;7.20;99.90;;;;;;5075236;28;20182;-82
2022/12/27 13:05:49;;;;;;;1.70;1.20;;;7.20;99.90;;;;;;5048245;28;20276;-80
2022/12/27 13:08:25;;;;;;;1.15;0.75;;;7.20;99.90;;;;;;5074324;28;20699;-81
2022/12/27 13:11:14;;;;;;;0.90;0.90;;;7.10;99.90;;;;;;5069025;28;20224;-82
2022/12/27 13:13:53;;;;;;;0.60;0.60;;;7.10;99.90;;;;;;5056032;28;20201;-81
2022/12/27 13:16:35;;;;;;;0.50;0.40;;;7.10;99.90;;;;;;5058758;28;20548;-79
2022/12/27 13:19:18;;;;;;;0.90;0.73;;;7.10;99.90;;;;;;5058335;28;20253;-80
2022/12/27 13:22:07;;;;;;;5.28;0.93;;;7.10;99.90;;;;;;5058895;28;20199;-81
2022/12/27 13:24:45;;;;;;;0.50;0.50;;;7.10;99.90;;;;;;5057540;28;20180;-79
2022/12/27 13:27:22;;;;;;;0.80;0.77;;;7.10;99.90;;;;;;5062713;28;20672;-80
2022/12/27 13:30:01;;;;;;;1.85;1.75;;;7.10;99.90;;;;;;5077368;28;20235;-80
2022/12/27 13:32:39;;;;;;;4.68;0.90;;;7.10;99.90;;;;;;5077232;28;20253;-78
2022/12/27 13:35:21;;;;;;;1.30;1.10;;;7.10;99.90;;;;;;5076742;28;20686;-81
2022/12/27 13:38:07;;;;;;;0.93;0.73;;;7.10;99.90;;;;;;5077718;28;20220;-81
2022/12/27 13:41:07;;;;;;;0.80;0.80;;;7.10;99.90;;;;;;5076602;28;21036;-82
2022/12/27 13:43:55;;;;;;;0.50;0.40;;;7.00;99.90;;;;;;5056991;28;20203;-81
2022/12/27 13:46:48;;;;;;;2.00;0.65;;;7.10;99.90;;;;;;5058228;28;20285;-81
2022/12/27 13:49:43;;;;;;;0.75;0.75;;;7.10;99.90;;;;;;5058157;28;20787;-81
2022/12/27 13:52:26;;;;;;;0.70;0.70;;;7.20;99.90;;;;;;5044593;28;20285;-82
2022/12/27 13:55:38;;;;;;;0.57;0.57;;;7.20;99.90;;;;;;5056956;28;20237;-79
2022/12/27 13:58:34;;;;;;;1.90;1.25;;;7.20;99.90;;;;;;4996156;28;20311;-82
2022/12/27 14:01:25;;;;;;;1.25;1.15;;;7.30;99.90;;;;;;5067232;28;20194;-82
2022/12/27 14:04:15;;;;;;;2.15;1.20;;;7.30;99.90;;;;;;5078026;28;20225;-86
2022/12/27 14:07:01;;;;;;;1.33;0.90;;;7.30;99.90;;;;;;5077493;28;20285;-81
2022/12/27 14:10:04;;;;;;;1.42;1.33;;;7.20;99.90;;;;;;5077985;28;20235;-80
2022/12/27 14:12:51;;;;;;;1.20;0.65;;;7.20;99.90;;;;;;5061201;28;20288;-81
2022/12/27 14:15:21;;;;;;;0.77;0.77;;;7.10;99.90;;;;;;5077127;28;20562;-80
2022/12/27 14:17:56;;;;;;;0.70;0.60;;;7.10;99.90;;;;;;5078030;28;20217;-80
2022/12/27 14:20:36;;;;;;;18.95;1.67;;;7.00;99.90;;;;;;5077730;28;20277;-81
2022/12/27 14:23:23;;;;;;;0.70;0.50;;;7.00;99.90;;;;;;5078255;28;20238;-80
2022/12/27 14:26:17;;;;;;;0.70;0.70;;;7.00;99.90;;;;;;5076267;28;20184;-80
2022/12/27 14:29:08;;;;;;;1.73;0.70;;;7.00;99.90;;;;;;5073161;28;20350;-81
2022/12/27 14:32:03;;;;;;;0.70;0.70;;;7.00;99.90;;;;;;5076053;28;20251;-81
2022/12/27 14:35:04;;;;;;;14.70;1.17;;;7.00;99.90;;;;;;5042763;28;20328;-80
2022/12/27 14:38:10;;;;;;;2.25;0.65;;;6.90;99.90;;;;;;5077801;28;20304;-80
2022/12/27 14:40:59;;;;;;;0.50;0.40;;;6.90;99.90;;;;;;5078414;28;20233;-81
2022/12/27 14:44:14;;;;;;;0.63;0.63;;;6.90;99.90;;;;;;5077389;28;20192;-81
2022/12/27 14:47:32;;;;;;;0.50;0.40;;;6.90;99.90;;;;;;5077306;28;20238;-82
2022/12/27 14:50:36;;;;;;;1.33;1.23;;;6.80;99.90;;;;;;5077175;28;20182;-82
2022/12/27 14:54:08;;;;;;;0.50;0.50;;;6.80;99.90;;;;;;5077770;28;20206;-85
2022/12/27 14:56:48;;;;;;;0.70;0.50;;;6.80;99.90;;;;;;4995381;28;20207;-79
2022/12/27 14:59:28;;;;;;;2.53;1.15;;;6.70;99.90;;;;;;4995346;28;20228;-80
2022/12/27 15:02:03;;;;;;;0.70;0.70;;;6.70;99.90;;;;;;5080744;22;20225;-77
2022/12/27 15:04:59;;;;;;;0.75;0.75;;;6.60;99.90;;;;;;5041004;28;20200;-76
2022/12/27 15:07:38;;;;;;;0.90;0.50;;;6.60;99.90;;;;;;5032150;28;20215;-74
2022/12/27 15:10:14;;;;;;;1.45;1.17;;;6.60;99.90;;;;;;5042566;28;20237;-75
2022/12/27 15:12:54;;;;;;;5.72;1.15;;;6.60;99.90;;;;;;5054185;28;20201;-76
2022/12/27 15:15:45;;;;;;;0.50;0.43;;;6.60;99.90;;;;;;5051806;28;20572;-76
2022/12/27 15:18:30;;;;;;;0.50;0.40;;;6.60;99.90;;;;;;5052368;28;20201;-75